createdAt,value
2017-06-20T00:00:02.942Z,70.76
2017-06-20T00:01:04.227Z,70.66
2017-06-20T00:02:05.474Z,70.95
2017-06-20T00:03:06.725Z,70.76
2017-06-20T00:04:08.089Z,71.24
2017-06-20T00:05:09.347Z,71.43
2017-06-20T00:06:10.592Z,72.11
2017-06-20T00:07:11.839Z,72.01
2017-06-20T00:08:13.162Z,71.91
2017-06-20T00:09:14.406Z,71.91
2017-06-20T00:10:15.681Z,72.01
2017-06-20T00:11:16.966Z,72.11
2017-06-20T00:12:18.250Z,71.91
2017-06-20T00:15:35.364Z,70.95
2017-06-20T00:16:36.613Z,70.76
2017-06-20T00:17:37.930Z,70.47
2017-06-20T00:18:39.269Z,70.18
2017-06-20T00:19:40.422Z,70.47
2017-06-20T00:20:41.673Z,70.56
2017-06-20T00:21:42.956Z,71.14
2017-06-20T00:22:44.203Z,71.04
2017-06-20T00:23:45.461Z,71.91
2017-06-20T00:24:46.721Z,70.76
2017-06-20T00:25:47.972Z,70.76
2017-06-20T00:26:49.300Z,70.28
2017-06-20T00:27:50.518Z,69.99
2017-06-20T00:28:51.845Z,69.6
2017-06-20T00:29:53.070Z,69.99
2017-06-20T00:30:54.461Z,70.18
2017-06-20T00:31:55.702Z,69.79
2017-06-20T00:32:56.957Z,69.67
2017-06-20T00:33:58.200Z,69.57
2017-06-20T00:34:59.451Z,69.6
2017-06-20T00:36:00.739Z,70.24
2017-06-20T00:37:02.011Z,70.05
2017-06-20T00:38:03.264Z,70.05
2017-06-20T00:39:04.506Z,70.05
2017-06-20T00:40:05.758Z,70.05
2017-06-20T00:41:07.009Z,70.34
2017-06-20T00:42:08.277Z,70.43
2017-06-20T00:43:09.534Z,70.43
2017-06-20T00:44:10.775Z,70.53
2017-06-20T00:45:12.038Z,70.24
2017-06-20T00:46:13.281Z,70.53
2017-06-20T00:47:14.523Z,71.2
2017-06-20T00:48:15.776Z,71.97
2017-06-20T00:49:17.026Z,71.78
2017-06-20T00:50:18.399Z,72.84
2017-06-20T00:51:19.700Z,72.84
2017-06-20T00:52:20.954Z,72.26
2017-06-20T00:53:22.302Z,72.84
2017-06-20T00:54:23.596Z,71.3
2017-06-20T00:55:24.834Z,70.82
2017-06-20T00:56:26.099Z,72.07
2017-06-20T00:57:27.448Z,72.26
2017-06-20T00:58:28.702Z,72.74
2017-06-20T00:59:29.982Z,72.84
2017-06-20T01:00:31.225Z,73.22
2017-06-20T01:01:32.512Z,73.42
2017-06-20T01:02:33.769Z,74.05
2017-06-20T01:03:35.020Z,74.09
2017-06-20T01:04:36.271Z,74.19
2017-06-20T01:05:37.599Z,74.63
2017-06-20T01:06:38.833Z,74.34
2017-06-20T01:07:40.160Z,74.44
2017-06-20T01:08:41.343Z,74.92
2017-06-20T01:09:42.584Z,74.92
2017-06-20T01:10:43.835Z,74.73
2017-06-20T01:11:45.084Z,75.02
2017-06-20T01:12:46.449Z,75.31
2017-06-20T01:13:47.740Z,75.11
2017-06-20T01:14:49.145Z,75.88
2017-06-20T01:15:50.397Z,75.79
2017-06-20T01:16:51.637Z,75.69
2017-06-20T01:17:52.886Z,75.69
2017-06-20T01:18:54.152Z,75.31
2017-06-20T01:19:55.507Z,75.49
2017-06-20T01:20:56.819Z,75.79
2017-06-20T01:21:58.024Z,76.07
2017-06-20T01:22:59.283Z,76.04
2017-06-20T01:24:00.538Z,75.94
2017-06-20T01:25:01.874Z,76.17
2017-06-20T01:26:03.236Z,76.17
2017-06-20T01:27:04.376Z,76.23
2017-06-20T01:28:05.642Z,75.75
2017-06-20T01:29:06.874Z,75.75
2017-06-20T01:30:08.160Z,75.69
2017-06-20T01:31:09.600Z,75.65
2017-06-20T01:32:10.741Z,76.23
2017-06-20T01:33:12.011Z,76.04
2017-06-20T01:34:13.327Z,75.94
2017-06-20T01:35:14.578Z,76.42
2017-06-20T01:36:15.833Z,76.42
2017-06-20T01:37:17.096Z,76.52
2017-06-20T01:38:18.395Z,76.71
2017-06-20T01:39:19.722Z,76.14
2017-06-20T01:40:20.987Z,76.17
2017-06-20T01:41:22.230Z,75.75
2017-06-20T01:42:23.506Z,76.04
2017-06-20T01:43:24.746Z,76.14
2017-06-20T01:44:26.020Z,76.04
2017-06-20T01:45:27.280Z,75.94
2017-06-20T01:46:28.536Z,75.79
2017-06-20T01:47:29.778Z,76.07
2017-06-20T01:48:31.042Z,76.75
2017-06-20T01:49:32.390Z,76.75
2017-06-20T01:50:33.620Z,76.56
2017-06-20T01:51:34.942Z,76.26
2017-06-20T01:52:36.119Z,76.65
2017-06-20T01:53:37.365Z,77.13
2017-06-20T01:54:38.637Z,76.84
2017-06-20T01:55:39.902Z,76.65
2017-06-20T01:56:41.159Z,77.13
2017-06-20T01:57:42.429Z,77.13
2017-06-20T01:58:43.694Z,77.71
2017-06-20T01:59:44.912Z,77.23
2017-06-20T02:00:46.186Z,77.33
2017-06-20T02:01:47.461Z,77.33
2017-06-20T02:02:48.734Z,77.9
2017-06-20T02:03:49.993Z,77.81
2017-06-20T02:04:51.344Z,78.09
2017-06-20T02:05:52.591Z,78.09
2017-06-20T02:06:53.841Z,78.25
2017-06-20T02:07:55.090Z,78.09
2017-06-20T02:08:56.334Z,78.34
2017-06-20T02:09:57.731Z,78.28
2017-06-20T02:10:58.988Z,78.96
2017-06-20T02:12:00.255Z,79.02
2017-06-20T02:13:01.508Z,79.4
2017-06-20T02:14:02.767Z,79.25
2017-06-20T02:15:04.028Z,79.4
2017-06-20T02:16:05.283Z,79.5
2017-06-20T02:17:06.540Z,79.5
2017-06-20T02:18:07.794Z,79.88
2017-06-20T02:19:09.068Z,79.79
2017-06-20T02:20:10.325Z,79.88
2017-06-20T02:21:11.620Z,80.84
2017-06-20T02:22:12.865Z,80.75
2017-06-20T02:23:14.112Z,80.75
2017-06-20T02:24:15.363Z,80.75
2017-06-20T02:25:16.602Z,80.84
2017-06-20T02:26:17.843Z,81.13
2017-06-20T02:27:19.092Z,81.04
2017-06-20T02:28:20.347Z,81.52
2017-06-20T02:29:21.710Z,81.71
2017-06-20T02:30:22.954Z,82.19
2017-06-20T02:31:24.275Z,82.76
2017-06-20T02:32:25.528Z,82.38
2017-06-20T02:33:26.765Z,82.67
2017-06-20T02:34:28.026Z,82.48
2017-06-20T02:35:29.282Z,82.38
2017-06-20T02:36:30.542Z,82.96
2017-06-20T02:37:31.783Z,83.34
2017-06-20T02:38:33.042Z,83.63
2017-06-20T02:39:34.332Z,83.25
2017-06-20T02:40:35.579Z,83.92
2017-06-20T02:41:36.846Z,83.73
2017-06-20T02:42:38.095Z,83.92
2017-06-20T02:43:39.359Z,84.11
2017-06-20T02:44:40.593Z,84.3
2017-06-20T02:45:41.851Z,84.69
2017-06-20T02:46:43.131Z,84.3
2017-06-20T02:47:44.386Z,85.03
2017-06-20T02:48:45.615Z,85.22
2017-06-20T02:49:46.867Z,85.22
2017-06-20T02:50:48.223Z,85.32
2017-06-20T02:51:49.453Z,85.32
2017-06-20T02:52:50.704Z,85.99
2017-06-20T02:53:51.954Z,85.13
2017-06-20T02:54:53.321Z,85.89
2017-06-20T02:55:54.573Z,85.61
2017-06-20T02:56:55.828Z,86.47
2017-06-20T02:57:57.098Z,86.57
2017-06-20T02:58:58.353Z,86.57
2017-06-20T02:59:59.716Z,86.76
2017-06-20T03:01:00.957Z,87.24
2017-06-20T03:02:02.194Z,87.15
2017-06-20T03:03:03.431Z,87.72
2017-06-20T03:04:04.762Z,87.62
2017-06-20T03:05:06.098Z,87.62
2017-06-20T03:06:07.357Z,87.72
2017-06-20T03:07:08.626Z,87.62
2017-06-20T03:08:09.873Z,88.2
2017-06-20T03:09:11.124Z,88.49
2017-06-20T03:10:12.503Z,88.3
2017-06-20T03:11:13.797Z,88.01
2017-06-20T03:12:15.080Z,88.3
2017-06-20T03:13:16.303Z,88.59
2017-06-20T03:14:17.566Z,88.78
2017-06-20T03:15:18.835Z,88.87
2017-06-20T03:16:20.144Z,88.59
2017-06-20T03:17:21.409Z,88.97
2017-06-20T03:18:22.656Z,89.36
2017-06-20T03:19:23.913Z,88.97
2017-06-20T03:20:25.174Z,89.26
2017-06-20T03:21:26.433Z,89.45
2017-06-20T03:22:27.793Z,89.36
2017-06-20T03:23:29.049Z,90.03
2017-06-20T03:24:30.409Z,89.16
2017-06-20T03:25:31.637Z,89.4
2017-06-20T03:26:32.907Z,89.45
2017-06-20T03:27:34.179Z,89.83
2017-06-20T03:28:35.478Z,89.93
2017-06-20T03:29:36.723Z,89.83
2017-06-20T03:30:37.976Z,89.45
2017-06-20T03:31:39.221Z,89.64
2017-06-20T03:32:40.464Z,90.03
2017-06-20T03:33:41.707Z,89.45
2017-06-20T03:34:42.962Z,90.03
2017-06-20T03:35:44.227Z,90.03
2017-06-20T03:36:45.873Z,89.54
2017-06-20T03:37:47.113Z,89.64
2017-06-20T03:38:48.364Z,89.45
2017-06-20T03:39:49.708Z,89.54
2017-06-20T03:40:50.947Z,89.74
2017-06-20T03:41:52.275Z,89.74
2017-06-20T03:42:53.510Z,89.64
2017-06-20T03:43:54.772Z,89.54
2017-06-20T03:44:56.016Z,89.83
2017-06-20T03:45:57.269Z,90.03
2017-06-20T03:46:58.608Z,89.07
2017-06-20T03:47:59.869Z,89.16
2017-06-20T03:49:01.121Z,89.36
2017-06-20T03:50:02.370Z,89.11
2017-06-20T03:51:03.622Z,89.07
2017-06-20T03:52:04.878Z,88.44
2017-06-20T03:53:06.143Z,88.73
2017-06-20T03:54:07.388Z,88.53
2017-06-20T03:55:08.638Z,88.82
2017-06-20T03:56:09.888Z,88.63
2017-06-20T03:57:11.165Z,88.63
2017-06-20T03:58:12.480Z,88.82
2017-06-20T03:59:13.709Z,88.73
2017-06-20T04:00:14.964Z,88.73
2017-06-20T04:01:16.253Z,88.34
2017-06-20T04:02:17.470Z,88.15
2017-06-20T04:03:18.716Z,88.44
2017-06-20T04:04:20.002Z,88.24
2017-06-20T04:05:21.465Z,88.24
2017-06-20T04:06:22.652Z,88.06
2017-06-20T04:07:23.904Z,87.96
2017-06-20T04:08:25.142Z,87.67
2017-06-20T04:09:26.399Z,87.81
2017-06-20T04:10:27.660Z,87.23
2017-06-20T04:11:28.942Z,87.42
2017-06-20T04:12:30.186Z,86.85
2017-06-20T04:13:31.451Z,86.36
2017-06-20T04:14:32.686Z,86.18
2017-06-20T04:15:33.941Z,86.08
2017-06-20T04:16:35.192Z,85.78
2017-06-20T04:17:36.442Z,85.54
2017-06-20T04:18:37.716Z,85.44
2017-06-20T04:19:38.989Z,85.44
2017-06-20T04:20:40.223Z,84.87
2017-06-20T04:21:41.469Z,84.58
2017-06-20T04:22:42.733Z,84.39
2017-06-20T04:23:44.038Z,84.67
2017-06-20T04:24:45.301Z,84.48
2017-06-20T04:25:46.564Z,84
2017-06-20T04:26:47.793Z,84.1
2017-06-20T04:27:49.040Z,83.95
2017-06-20T04:28:50.408Z,83.08
2017-06-20T04:29:51.788Z,82.7
2017-06-20T04:30:53.019Z,82.31
2017-06-20T04:31:54.282Z,82.31
2017-06-20T04:32:55.525Z,82.7
2017-06-20T04:33:56.796Z,82.12
2017-06-20T04:34:58.135Z,82.45
2017-06-20T04:35:59.449Z,81.58
2017-06-20T04:37:00.681Z,81.68
2017-06-20T04:38:01.990Z,80.91
2017-06-20T04:39:03.191Z,80.71
2017-06-20T04:40:04.442Z,80.33
2017-06-20T04:41:05.684Z,80.18
2017-06-20T04:42:06.938Z,79.79
2017-06-20T04:43:08.189Z,79.5
2017-06-20T04:44:09.447Z,79.11
2017-06-20T04:45:10.747Z,79.41
2017-06-20T04:46:12.004Z,78.92
2017-06-20T04:47:13.251Z,78.83
2017-06-20T04:48:14.530Z,79.21
2017-06-20T04:49:15.854Z,78.73
2017-06-20T04:50:17.097Z,79.21
2017-06-20T04:51:18.338Z,78.83
2017-06-20T04:52:19.596Z,78.96
2017-06-20T04:53:20.860Z,78.58
2017-06-20T04:54:22.084Z,78.38
2017-06-20T04:55:23.348Z,77.9
2017-06-20T04:56:24.632Z,77.42
2017-06-20T04:57:25.890Z,78
2017-06-20T04:58:27.127Z,77.33
2017-06-20T04:59:28.390Z,77.36
2017-06-20T05:00:29.658Z,76.4
2017-06-20T05:01:30.894Z,76.05
2017-06-20T05:02:32.177Z,75.18
2017-06-20T05:03:33.442Z,74.06
2017-06-20T05:04:34.692Z,72.9
2017-06-20T05:05:35.960Z,72.06
2017-06-20T05:06:37.208Z,71.42
2017-06-20T05:07:38.538Z,70.36
2017-06-20T05:08:39.811Z,69.4
2017-06-20T05:09:41.083Z,69.62
2017-06-20T05:10:42.313Z,67.98
2017-06-20T05:11:43.596Z,67.14
2017-06-20T05:12:44.823Z,65.82
2017-06-20T05:13:46.082Z,64.89
2017-06-20T05:14:47.391Z,63.37
2017-06-20T05:15:48.632Z,62.13
2017-06-20T05:16:49.908Z,60.88
2017-06-20T05:17:51.136Z,60.91
2017-06-20T05:18:52.383Z,59.87
2017-06-20T05:19:53.816Z,59.28
2017-06-20T05:20:55.011Z,57.76
2017-06-20T05:21:56.225Z,56.5
2017-06-20T05:22:57.487Z,56.43
2017-06-20T05:23:58.754Z,55.85
2017-06-20T05:25:00.059Z,55.39
2017-06-20T05:26:01.308Z,54.93
2017-06-20T05:27:02.581Z,53.57
2017-06-20T05:28:03.885Z,53.47
2017-06-20T05:29:05.169Z,52.72
2017-06-20T05:30:06.486Z,52.53
2017-06-20T05:31:07.783Z,52.14
2017-06-20T05:32:09.072Z,52.06
2017-06-20T05:33:10.308Z,51.48
2017-06-20T05:34:11.611Z,50.73
2017-06-20T05:35:12.900Z,51.02
2017-06-20T05:36:14.127Z,50.43
2017-06-20T05:37:15.366Z,49.78
2017-06-20T05:38:16.659Z,49.29
2017-06-20T05:39:17.918Z,48.93
2017-06-20T05:40:19.190Z,48.54
2017-06-20T05:41:20.442Z,48.73
2017-06-20T05:42:21.693Z,47.97
2017-06-20T05:43:22.956Z,47
2017-06-20T05:44:24.281Z,46.85
2017-06-20T05:45:25.542Z,46.17
2017-06-20T05:46:26.799Z,44.34
2017-06-20T05:47:28.045Z,43.67
2017-06-20T05:48:29.297Z,43.18
2017-06-20T05:49:30.620Z,43.01
2017-06-20T05:50:31.871Z,42.71
2017-06-20T05:51:33.132Z,42.42
2017-06-20T05:52:34.423Z,42.71
2017-06-20T05:53:35.668Z,41.76
2017-06-20T05:54:36.935Z,41.27
2017-06-20T05:55:38.156Z,40.6
2017-06-20T05:56:39.449Z,40.63
2017-06-20T05:57:40.704Z,40.16
2017-06-20T05:58:42.005Z,39.37
2017-06-20T05:59:43.320Z,38.41
2017-06-20T06:00:44.580Z,38.31
2017-06-20T06:01:45.828Z,37.92
2017-06-20T06:02:47.092Z,38.02
2017-06-20T06:03:48.348Z,38.41
2017-06-20T06:04:49.669Z,38.33
2017-06-20T06:05:50.927Z,37.54
2017-06-20T06:06:52.247Z,36.96
2017-06-20T06:07:53.928Z,38.13
2017-06-20T06:08:55.465Z,37.25
2017-06-20T06:09:57.117Z,37.54
2017-06-20T06:10:59.003Z,37.17
2017-06-20T06:12:00.290Z,36.99
2017-06-20T06:13:01.557Z,36.32
2017-06-20T06:14:02.823Z,35.26
2017-06-20T06:15:04.090Z,34.89
2017-06-20T06:16:05.332Z,34.22
2017-06-20T06:17:06.612Z,33.33
2017-06-20T06:18:07.875Z,32.95
2017-06-20T06:19:09.144Z,32.77
2017-06-20T06:20:10.396Z,32.38
2017-06-20T06:21:11.653Z,32.38
2017-06-20T06:22:12.908Z,32.57
2017-06-20T06:23:14.189Z,31.79
2017-06-20T06:24:15.453Z,31.59
2017-06-20T06:25:16.703Z,31.49
2017-06-20T06:26:17.988Z,31.49
2017-06-20T06:27:19.231Z,31.87
2017-06-20T06:28:20.533Z,32.48
2017-06-20T06:29:21.888Z,31.79
2017-06-20T06:30:23.251Z,32.07
2017-06-20T06:31:24.510Z,32.84
2017-06-20T06:32:25.756Z,33.23
2017-06-20T06:33:27.022Z,32.95
2017-06-20T06:34:28.342Z,32.38
2017-06-20T06:35:29.583Z,31.6
2017-06-20T06:36:30.832Z,30.75
2017-06-20T06:37:32.092Z,29.48
2017-06-20T06:38:33.329Z,28.8
2017-06-20T06:39:34.600Z,28.61
2017-06-20T06:40:35.987Z,28.7
2017-06-20T06:41:37.268Z,28.13
2017-06-20T06:42:38.513Z,28.14
2017-06-20T06:43:39.774Z,27.36
2017-06-20T06:44:41.026Z,27.75
2017-06-20T06:45:42.350Z,28.7
2017-06-20T06:46:43.643Z,28.7
2017-06-20T06:47:44.911Z,28.42
2017-06-20T06:48:46.297Z,28.05
2017-06-20T06:49:47.536Z,28.24
2017-06-20T06:50:48.789Z,27.84
2017-06-20T06:51:50.202Z,27.35
2017-06-20T06:52:51.482Z,27.44
2017-06-20T06:53:52.732Z,27.64
2017-06-20T06:54:53.971Z,27.35
2017-06-20T06:55:55.221Z,27.35
2017-06-20T06:56:56.477Z,27.15
2017-06-20T06:57:57.746Z,26.68
2017-06-20T06:58:58.997Z,25.4
2017-06-20T07:00:00.255Z,25.71
2017-06-20T07:01:01.641Z,25.23
2017-06-20T07:02:02.874Z,24.45
2017-06-20T07:03:04.170Z,24.65
2017-06-20T07:04:05.448Z,24.24
2017-06-20T07:05:06.739Z,24.45
2017-06-20T07:06:08.025Z,24.26
2017-06-20T07:07:09.270Z,23.95
2017-06-20T07:08:10.508Z,24.26
2017-06-20T07:09:11.783Z,24.25
2017-06-20T07:10:13.061Z,24.25
2017-06-20T07:11:14.304Z,24.33
2017-06-20T07:12:15.575Z,25.03
2017-06-20T07:13:16.830Z,24.65
2017-06-20T07:14:18.095Z,23.86
2017-06-20T07:15:19.380Z,24.36
2017-06-20T07:16:20.820Z,23.96
2017-06-20T07:17:22.206Z,24.07
2017-06-20T07:18:23.463Z,24.07
2017-06-20T07:19:24.722Z,23.86
2017-06-20T07:20:25.990Z,24.16
2017-06-20T07:21:27.249Z,24.35
2017-06-20T07:22:28.541Z,24.36
2017-06-20T07:23:29.851Z,24.96
2017-06-20T07:24:31.155Z,23.59
2017-06-20T07:25:32.399Z,23.5
2017-06-20T07:26:33.647Z,22.33
2017-06-20T07:27:34.905Z,21.86
2017-06-20T07:28:36.200Z,20.38
2017-06-20T07:29:37.456Z,19.98
2017-06-20T07:30:38.702Z,20
2017-06-20T07:31:39.973Z,20.4
2017-06-20T07:32:41.214Z,19.1
2017-06-20T07:33:42.488Z,18.8
2017-06-20T07:34:43.963Z,19.29
2017-06-20T07:35:45.230Z,19.29
2017-06-20T07:36:46.527Z,19.29
2017-06-20T07:37:47.792Z,19.18
2017-06-20T07:38:49.052Z,19.86
2017-06-20T07:39:50.310Z,19.98
2017-06-20T07:40:51.708Z,19.58
2017-06-20T07:41:52.958Z,19.69
2017-06-20T07:42:54.237Z,19.31
2017-06-20T07:43:55.495Z,18.52
2017-06-20T07:44:56.754Z,18.02
2017-06-20T07:45:58.018Z,17.83
2017-06-20T07:46:59.289Z,17.64
2017-06-20T07:48:00.565Z,17.44
2017-06-20T07:49:01.819Z,17.23
2017-06-20T07:50:03.088Z,17.62
2017-06-20T07:51:04.440Z,18.2
2017-06-20T07:52:05.857Z,18.8
2017-06-20T07:53:07.012Z,19.09
2017-06-20T07:54:08.273Z,19.09
2017-06-20T07:55:09.533Z,18.88
2017-06-20T07:56:10.808Z,19.56
2017-06-20T07:57:12.071Z,19.65
2017-06-20T07:58:13.327Z,19.76
2017-06-20T07:59:14.678Z,19.96
2017-06-20T08:00:15.959Z,19.48
2017-06-20T08:01:17.186Z,19.08
2017-06-20T08:02:18.469Z,19.29
2017-06-20T08:03:19.722Z,19.18
2017-06-20T08:04:21.001Z,19.27
2017-06-20T08:05:22.290Z,19.18
2017-06-20T08:06:23.551Z,19.1
2017-06-20T08:07:24.814Z,18.59
2017-06-20T08:08:26.081Z,19.56
2017-06-20T08:09:27.340Z,20.33
2017-06-20T08:10:28.627Z,20.63
2017-06-20T08:11:29.911Z,21.03
2017-06-20T08:12:31.251Z,19.96
2017-06-20T08:13:32.459Z,19.67
2017-06-20T08:14:33.733Z,19.67
2017-06-20T08:15:35.005Z,19.1
2017-06-20T08:16:36.267Z,18.59
2017-06-20T08:17:37.551Z,18.8
2017-06-20T08:18:38.793Z,19.38
2017-06-20T08:19:40.053Z,18.6
2017-06-20T08:20:41.330Z,17.82
2017-06-20T08:21:42.590Z,17.14
2017-06-20T08:22:43.964Z,17.83
2017-06-20T08:23:45.215Z,17.14
2017-06-20T08:24:46.479Z,17.54
2017-06-20T08:25:47.741Z,17.74
2017-06-20T08:26:49.021Z,17.44
2017-06-20T08:27:50.274Z,17.55
2017-06-20T08:28:51.539Z,16.36
2017-06-20T08:29:52.796Z,16.26
2017-06-20T08:30:54.106Z,16.56
2017-06-20T08:31:55.350Z,16.46
2017-06-20T08:32:56.631Z,16.55
2017-06-20T08:33:57.891Z,17.43
2017-06-20T08:34:59.197Z,17.34
2017-06-20T08:36:00.550Z,17.05
2017-06-20T08:37:01.785Z,17.64
2017-06-20T08:38:03.034Z,17.65
2017-06-20T08:39:04.297Z,16.95
2017-06-20T08:40:05.561Z,17.05
2017-06-20T08:41:06.904Z,16.66
2017-06-20T08:42:08.191Z,16.66
2017-06-20T08:43:09.479Z,16.34
2017-06-20T08:44:10.775Z,17.14
2017-06-20T08:45:12.045Z,16.96
2017-06-20T08:46:13.305Z,16.75
2017-06-20T08:47:14.692Z,16.75
2017-06-20T08:48:15.964Z,16.27
2017-06-20T08:49:17.232Z,16.18
2017-06-20T08:50:18.506Z,15.79
2017-06-20T08:51:19.772Z,15.58
2017-06-20T08:52:21.048Z,15.67
2017-06-20T08:53:22.316Z,16.47
2017-06-20T08:54:23.609Z,16.06
2017-06-20T08:55:24.876Z,16.16
2017-06-20T08:56:26.145Z,15.58
2017-06-20T08:57:27.411Z,15.8
2017-06-20T08:58:28.672Z,14.71
2017-06-20T08:59:30.042Z,14.72
2017-06-20T09:00:31.352Z,13.62
2017-06-20T09:01:32.630Z,13.72
2017-06-20T09:02:33.901Z,13.53
2017-06-20T09:03:35.159Z,13.64
2017-06-20T09:04:36.424Z,13.93
2017-06-20T09:05:37.751Z,13.93
2017-06-20T09:06:39.052Z,13.64
2017-06-20T09:07:40.299Z,13.83
2017-06-20T09:08:41.584Z,13.93
2017-06-20T09:09:42.837Z,13.43
2017-06-20T09:10:44.167Z,13.73
2017-06-20T09:11:45.469Z,13.73
2017-06-20T09:12:46.747Z,13.35
2017-06-20T09:13:47.998Z,12.66
2017-06-20T09:14:49.280Z,11.97
2017-06-20T09:15:50.561Z,11.87
2017-06-20T09:16:51.816Z,12.06
2017-06-20T09:17:53.160Z,12.35
2017-06-20T09:18:54.413Z,13.14
2017-06-20T09:19:55.683Z,12.94
2017-06-20T09:20:56.945Z,13.73
2017-06-20T09:21:58.257Z,13.54
2017-06-20T09:22:59.609Z,13.53
2017-06-20T09:24:00.861Z,13.92
2017-06-20T09:25:02.131Z,14.92
2017-06-20T09:26:03.399Z,13.42
2017-06-20T09:27:04.718Z,13.52
2017-06-20T09:28:05.980Z,13.42
2017-06-20T09:29:07.254Z,14.32
2017-06-20T09:30:08.519Z,12.84
2017-06-20T09:31:09.773Z,12.93
2017-06-20T09:32:11.062Z,12.84
2017-06-20T09:33:12.304Z,12.94
2017-06-20T09:34:13.564Z,13.34
2017-06-20T09:35:14.839Z,12.65
2017-06-20T09:36:16.103Z,12.54
2017-06-20T09:37:17.371Z,12.85
2017-06-20T09:38:18.701Z,12.45
2017-06-20T09:39:20.099Z,12.45
2017-06-20T09:40:21.375Z,12.74
2017-06-20T09:41:22.645Z,13.04
2017-06-20T09:42:23.922Z,13.15
2017-06-20T09:43:25.182Z,11.75
2017-06-20T09:44:26.513Z,11.94
2017-06-20T09:45:28.038Z,12.95
2017-06-20T09:46:29.301Z,12.25
2017-06-20T09:47:30.556Z,12.44
2017-06-20T09:48:31.830Z,12.13
2017-06-20T09:49:33.085Z,12.84
2017-06-20T09:50:34.381Z,12.65
2017-06-20T09:51:35.651Z,12.05
2017-06-20T09:52:36.925Z,12.15
2017-06-20T09:53:38.194Z,12.45
2017-06-20T09:54:39.458Z,12.35
2017-06-20T09:55:40.884Z,12.76
2017-06-20T09:56:42.154Z,12.07
2017-06-20T09:57:43.502Z,12.48
2017-06-20T09:58:44.756Z,12.19
2017-06-20T09:59:46.014Z,11.09
2017-06-20T10:00:47.272Z,10.58
2017-06-20T10:01:48.581Z,10.49
2017-06-20T10:02:49.948Z,10.6
2017-06-20T10:03:51.280Z,10.7
2017-06-20T10:04:52.534Z,10.79
2017-06-20T10:05:53.799Z,10.99
2017-06-20T10:06:55.064Z,11.08
2017-06-20T10:07:56.393Z,11.58
2017-06-20T10:08:57.673Z,11.17
2017-06-20T10:09:58.945Z,11.57
2017-06-20T10:11:00.208Z,11.27
2017-06-20T10:12:01.470Z,11.96
2017-06-20T10:13:02.849Z,12.26
2017-06-20T10:14:04.221Z,12.55
2017-06-20T10:15:05.498Z,12.45
2017-06-20T10:16:06.767Z,12.25
2017-06-20T10:17:08.060Z,12.25
2017-06-20T10:18:09.325Z,12.55
2017-06-20T10:19:10.640Z,12.05
2017-06-20T10:20:11.925Z,12.15
2017-06-20T10:21:13.204Z,12.74
2017-06-20T10:22:14.471Z,13.55
2017-06-20T10:23:15.762Z,12.74
2017-06-20T10:24:17.063Z,12.74
2017-06-20T10:25:18.356Z,13.64
2017-06-20T10:26:19.623Z,13.83
2017-06-20T10:27:20.905Z,13.62
2017-06-20T10:28:22.157Z,14.42
2017-06-20T10:29:23.427Z,14.02
2017-06-20T10:30:24.687Z,15.33
2017-06-20T10:31:26.025Z,14.13
2017-06-20T10:32:27.305Z,13.71
2017-06-20T10:33:28.570Z,14.01
2017-06-20T10:34:29.840Z,14.61
2017-06-20T10:35:31.098Z,15.09
2017-06-20T10:36:32.366Z,15
2017-06-20T10:37:33.704Z,15.39
2017-06-20T10:38:34.906Z,15.5
2017-06-20T10:39:36.165Z,16.75
2017-06-20T10:40:37.454Z,16.54
2017-06-20T10:41:38.757Z,17.42
2017-06-20T10:42:40.139Z,18.5
2017-06-20T10:43:41.391Z,19.1
2017-06-20T10:44:42.654Z,19.67
2017-06-20T10:45:43.917Z,19.27
2017-06-20T10:46:45.176Z,20.13
2017-06-20T10:47:46.466Z,20.41
2017-06-20T10:48:47.755Z,20.51
2017-06-20T10:49:48.995Z,21.4
2017-06-20T10:50:50.323Z,21.4
2017-06-20T10:51:51.586Z,22.49
2017-06-20T10:52:52.842Z,22.19
2017-06-20T10:53:54.144Z,22.48
2017-06-20T10:54:55.375Z,23.03
2017-06-20T10:55:56.647Z,25.67
2017-06-20T10:56:57.924Z,25.76
2017-06-20T10:57:59.175Z,26.64
2017-06-20T10:59:00.428Z,26.04
2017-06-20T11:00:01.685Z,26.23
2017-06-20T11:01:02.973Z,26.62
2017-06-20T11:02:04.319Z,27
2017-06-20T11:03:05.593Z,27.68
2017-06-20T11:04:06.869Z,27.97
2017-06-20T11:05:08.135Z,28.17
2017-06-20T11:06:09.414Z,28.55
2017-06-20T11:07:10.696Z,28.85
2017-06-20T11:08:11.969Z,28.55
2017-06-20T11:09:13.239Z,27.78
2017-06-20T11:10:14.512Z,27.99
2017-06-20T11:11:15.740Z,27.3
2017-06-20T11:12:17.008Z,27.4
2017-06-20T11:13:18.258Z,27.59
2017-06-20T11:14:19.536Z,27.61
2017-06-20T11:15:20.807Z,26.32
2017-06-20T11:16:22.094Z,26.42
2017-06-20T11:17:23.359Z,27.51
2017-06-20T11:18:24.598Z,26.42
2017-06-20T11:19:26.067Z,27.2
2017-06-20T11:20:27.300Z,26.51
2017-06-20T11:21:28.559Z,27.28
2017-06-20T11:22:29.818Z,27.86
2017-06-20T11:23:31.065Z,28.14
2017-06-20T11:24:32.355Z,28.54
2017-06-20T11:25:33.653Z,29.03
2017-06-20T11:26:34.885Z,29.31
2017-06-20T11:27:36.175Z,29.51
2017-06-20T11:28:37.443Z,30.19
2017-06-20T11:29:38.819Z,30.1
2017-06-20T11:30:40.240Z,29.49
2017-06-20T11:31:41.517Z,29.79
2017-06-20T11:32:42.772Z,29.79
2017-06-20T11:33:44.060Z,30.47
2017-06-20T11:34:45.290Z,29.79
2017-06-20T11:35:46.547Z,29.59
2017-06-20T11:36:47.800Z,30.76
2017-06-20T11:37:49.208Z,30.45
2017-06-20T11:38:50.438Z,30.25
2017-06-20T11:39:51.705Z,30.65
2017-06-20T11:40:52.978Z,30.36
2017-06-20T11:41:54.237Z,30.56
2017-06-20T11:42:55.504Z,30.76
2017-06-20T11:43:56.779Z,30.36
2017-06-20T11:44:58.100Z,30.17
2017-06-20T11:45:59.346Z,30.66
2017-06-20T11:47:00.658Z,30.38
2017-06-20T11:48:01.899Z,31.63
2017-06-20T11:49:03.166Z,31.73
2017-06-20T11:50:04.419Z,30.66
2017-06-20T11:51:05.665Z,30.85
2017-06-20T11:52:06.931Z,30.94
2017-06-20T11:53:08.191Z,31.32
2017-06-20T11:54:09.467Z,31.12
2017-06-20T11:55:10.772Z,32.38
2017-06-20T11:56:12.044Z,32.48
2017-06-20T11:57:13.369Z,31.9
2017-06-20T11:58:14.587Z,32.2
2017-06-20T11:59:15.851Z,31.43
2017-06-20T12:00:17.113Z,31.53
2017-06-20T12:01:18.468Z,32.41
2017-06-20T12:02:19.789Z,31.43
2017-06-20T12:03:21.039Z,31.25
2017-06-20T12:04:22.290Z,30.95
2017-06-20T12:05:23.576Z,31.16
2017-06-20T12:06:24.860Z,30.58
2017-06-20T12:07:26.130Z,31.46
2017-06-20T12:08:27.388Z,31.05
2017-06-20T12:09:28.703Z,31.64
2017-06-20T12:10:29.930Z,32.04
2017-06-20T12:11:31.209Z,31.63
2017-06-20T12:12:32.493Z,31.43
2017-06-20T12:13:33.708Z,31.53
2017-06-20T12:14:34.974Z,31.53
2017-06-20T12:15:36.230Z,31.81
2017-06-20T12:16:37.513Z,33
2017-06-20T12:17:38.761Z,32.41
2017-06-20T12:18:40.033Z,32.71
2017-06-20T12:19:41.313Z,32.61
2017-06-20T12:20:42.552Z,32.9
2017-06-20T12:21:43.815Z,33.48
2017-06-20T12:22:45.066Z,33.64
2017-06-20T12:23:46.317Z,34.81
2017-06-20T12:24:47.585Z,34.42
2017-06-20T12:25:48.823Z,34.7
2017-06-20T12:26:50.106Z,34.9
2017-06-20T12:27:51.368Z,34.61
2017-06-20T12:28:52.630Z,35.17
2017-06-20T12:29:53.875Z,35.55
2017-06-20T12:30:55.136Z,35.55
2017-06-20T12:31:56.396Z,35.75
2017-06-20T12:32:57.710Z,35.75
2017-06-20T12:33:58.959Z,35.75
2017-06-20T12:35:00.212Z,36.22
2017-06-20T12:36:01.476Z,36.3
2017-06-20T12:37:02.721Z,36.98
2017-06-20T12:38:04.037Z,37.87
2017-06-20T12:39:05.308Z,37.65
2017-06-20T12:40:06.676Z,36.96
2017-06-20T12:41:07.948Z,36.98
2017-06-20T12:42:09.206Z,37.16
2017-06-20T12:43:10.462Z,37.77
2017-06-20T12:44:11.711Z,37.27
2017-06-20T12:45:12.973Z,36.79
2017-06-20T12:46:14.291Z,37.1
2017-06-20T12:47:15.550Z,36.63
2017-06-20T12:48:16.808Z,35.55
2017-06-20T12:49:18.065Z,36.33
2017-06-20T12:50:19.372Z,35.16
2017-06-20T12:51:20.634Z,35.17
2017-06-20T12:52:21.873Z,34.98
2017-06-20T12:53:23.141Z,34.49
2017-06-20T12:54:24.403Z,34.39
2017-06-20T12:55:25.657Z,35.17
2017-06-20T12:56:26.988Z,34.86
2017-06-20T12:57:28.359Z,35.06
2017-06-20T12:58:29.624Z,35.16
2017-06-20T12:59:30.873Z,35.17
2017-06-20T13:00:32.120Z,34.1
2017-06-20T13:01:33.379Z,34.1
2017-06-20T13:02:34.640Z,33.51
2017-06-20T13:03:35.926Z,33.9
2017-06-20T13:04:37.172Z,34.2
2017-06-20T13:05:38.542Z,34.2
2017-06-20T13:06:39.784Z,34.1
2017-06-20T13:07:41.054Z,33.7
2017-06-20T13:08:42.382Z,34.01
2017-06-20T13:09:43.668Z,34.8
2017-06-20T13:10:44.930Z,34.13
2017-06-20T13:11:46.194Z,33.64
2017-06-20T13:12:47.426Z,33.84
2017-06-20T13:13:48.706Z,33.53